sensor_id;sensor_type;location;lat;lon;timestamp;P1;durP1;ratioP1;P2;durP2;ratioP2
40367;SDS011;26075;43.320;21.920;2022-07-06T00:02:13;7.82;;;5.82;;
40367;SDS011;26075;43.320;21.920;2022-07-06T00:07:16;8.05;;;6.35;;
40367;SDS011;26075;43.320;21.920;2022-07-06T00:12:18;7.10;;;5.43;;
40367;SDS011;26075;43.320;21.920;2022-07-06T00:17:20;9.07;;;5.55;;
40367;SDS011;26075;43.320;21.920;2022-07-06T00:22:31;10.93;;;6.03;;
40367;SDS011;26075;43.320;21.920;2022-07-06T00:27:38;8.80;;;6.80;;
40367;SDS011;26075;43.320;21.920;2022-07-06T00:32:44;12.50;;;7.43;;
40367;SDS011;26075;43.320;21.920;2022-07-06T00:37:45;9.80;;;6.95;;
40367;SDS011;26075;43.320;21.920;2022-07-06T00:42:47;9.85;;;7.10;;
40367;SDS011;26075;43.320;21.920;2022-07-06T00:47:49;9.25;;;7.15;;
40367;SDS011;26075;43.320;21.920;2022-07-06T00:52:51;11.82;;;8.13;;
40367;SDS011;26075;43.320;21.920;2022-07-06T00:57:52;10.52;;;7.72;;
40367;SDS011;26075;43.320;21.920;2022-07-06T01:02:54;11.70;;;7.80;;
40367;SDS011;26075;43.320;21.920;2022-07-06T01:07:55;9.43;;;7.30;;
40367;SDS011;26075;43.320;21.920;2022-07-06T01:12:56;9.95;;;7.47;;
40367;SDS011;26075;43.320;21.920;2022-07-06T01:17:58;10.35;;;7.43;;
40367;SDS011;26075;43.320;21.920;2022-07-06T01:22:59;11.40;;;8.13;;
40367;SDS011;26075;43.320;21.920;2022-07-06T01:28:00;10.50;;;7.35;;
40367;SDS011;26075;43.320;21.920;2022-07-06T01:33:01;10.45;;;6.85;;
40367;SDS011;26075;43.320;21.920;2022-07-06T01:38:02;9.93;;;6.55;;
40367;SDS011;26075;43.320;21.920;2022-07-06T01:43:03;9.80;;;6.22;;
40367;SDS011;26075;43.320;21.920;2022-07-06T01:48:05;7.43;;;6.22;;
40367;SDS011;26075;43.320;21.920;2022-07-06T01:53:06;9.20;;;6.10;;
40367;SDS011;26075;43.320;21.920;2022-07-06T01:58:08;8.60;;;5.50;;
40367;SDS011;26075;43.320;21.920;2022-07-06T02:03:09;8.77;;;6.10;;
40367;SDS011;26075;43.320;21.920;2022-07-06T02:08:10;8.65;;;6.38;;
40367;SDS011;26075;43.320;21.920;2022-07-06T02:13:11;9.75;;;6.13;;
40367;SDS011;26075;43.320;21.920;2022-07-06T02:18:12;8.13;;;6.03;;
40367;SDS011;26075;43.320;21.920;2022-07-06T02:23:13;10.95;;;7.07;;
40367;SDS011;26075;43.320;21.920;2022-07-06T02:33:21;10.25;;;8.05;;
40367;SDS011;26075;43.320;21.920;2022-07-06T02:38:22;9.68;;;8.25;;
40367;SDS011;26075;43.320;21.920;2022-07-06T02:43:23;11.43;;;8.68;;
40367;SDS011;26075;43.320;21.920;2022-07-06T02:48:24;11.18;;;9.45;;
40367;SDS011;26075;43.320;21.920;2022-07-06T02:53:25;13.45;;;9.38;;
40367;SDS011;26075;43.320;21.920;2022-07-06T03:03:36;12.82;;;9.75;;
40367;SDS011;26075;43.320;21.920;2022-07-06T03:08:37;10.27;;;8.85;;
40367;SDS011;26075;43.320;21.920;2022-07-06T03:13:38;15.48;;;9.18;;
40367;SDS011;26075;43.320;21.920;2022-07-06T03:18:39;11.50;;;8.63;;
40367;SDS011;26075;43.320;21.920;2022-07-06T03:23:40;13.40;;;8.93;;
40367;SDS011;26075;43.320;21.920;2022-07-06T03:28:51;9.95;;;8.43;;
40367;SDS011;26075;43.320;21.920;2022-07-06T03:33:52;12.32;;;8.50;;
40367;SDS011;26075;43.320;21.920;2022-07-06T03:38:54;14.02;;;8.35;;
40367;SDS011;26075;43.320;21.920;2022-07-06T03:43:55;10.27;;;8.35;;
40367;SDS011;26075;43.320;21.920;2022-07-06T03:48:56;9.68;;;7.50;;
40367;SDS011;26075;43.320;21.920;2022-07-06T03:53:57;10.48;;;7.88;;
40367;SDS011;26075;43.320;21.920;2022-07-06T03:59:05;10.07;;;7.55;;
40367;SDS011;26075;43.320;21.920;2022-07-06T04:04:06;11.77;;;7.63;;
40367;SDS011;26075;43.320;21.920;2022-07-06T04:09:07;11.10;;;6.90;;
40367;SDS011;26075;43.320;21.920;2022-07-06T04:14:09;10.32;;;7.55;;
40367;SDS011;26075;43.320;21.920;2022-07-06T04:19:10;12.50;;;7.18;;
40367;SDS011;26075;43.320;21.920;2022-07-06T04:24:11;8.60;;;7.00;;
40367;SDS011;26075;43.320;21.920;2022-07-06T04:29:13;10.10;;;7.57;;
40367;SDS011;26075;43.320;21.920;2022-07-06T04:34:14;11.85;;;7.38;;
40367;SDS011;26075;43.320;21.920;2022-07-06T04:39:15;10.15;;;6.28;;
40367;SDS011;26075;43.320;21.920;2022-07-06T04:44:16;11.70;;;7.43;;
40367;SDS011;26075;43.320;21.920;2022-07-06T04:49:17;8.30;;;6.70;;
40367;SDS011;26075;43.320;21.920;2022-07-06T04:54:18;7.95;;;6.15;;
40367;SDS011;26075;43.320;21.920;2022-07-06T04:59:19;8.00;;;6.30;;
40367;SDS011;26075;43.320;21.920;2022-07-06T05:04:20;10.68;;;6.68;;
40367;SDS011;26075;43.320;21.920;2022-07-06T05:09:22;9.15;;;6.40;;
40367;SDS011;26075;43.320;21.920;2022-07-06T05:14:23;10.32;;;5.88;;
40367;SDS011;26075;43.320;21.920;2022-07-06T05:19:29;7.70;;;5.80;;
40367;SDS011;26075;43.320;21.920;2022-07-06T05:24:37;9.32;;;6.22;;
40367;SDS011;26075;43.320;21.920;2022-07-06T05:29:38;9.50;;;6.30;;
40367;SDS011;26075;43.320;21.920;2022-07-06T05:34:39;10.60;;;6.10;;
40367;SDS011;26075;43.320;21.920;2022-07-06T05:39:40;8.85;;;6.30;;
40367;SDS011;26075;43.320;21.920;2022-07-06T05:44:43;11.27;;;6.13;;
40367;SDS011;26075;43.320;21.920;2022-07-06T05:49:45;7.43;;;6.43;;
40367;SDS011;26075;43.320;21.920;2022-07-06T05:55:05;8.07;;;5.63;;
40367;SDS011;26075;43.320;21.920;2022-07-06T06:00:06;11.93;;;6.43;;
40367;SDS011;26075;43.320;21.920;2022-07-06T06:05:09;10.50;;;6.05;;
40367;SDS011;26075;43.320;21.920;2022-07-06T06:10:11;15.57;;;6.80;;
40367;SDS011;26075;43.320;21.920;2022-07-06T06:15:12;10.73;;;6.38;;
40367;SDS011;26075;43.320;21.920;2022-07-06T06:20:14;8.48;;;6.20;;
40367;SDS011;26075;43.320;21.920;2022-07-06T06:25:37;11.73;;;6.45;;
40367;SDS011;26075;43.320;21.920;2022-07-06T06:30:37;9.40;;;6.35;;
40367;SDS011;26075;43.320;21.920;2022-07-06T06:35:41;11.73;;;6.40;;
40367;SDS011;26075;43.320;21.920;2022-07-06T06:40:43;8.23;;;6.20;;
40367;SDS011;26075;43.320;21.920;2022-07-06T06:45:44;13.07;;;6.35;;
40367;SDS011;26075;43.320;21.920;2022-07-06T06:50:47;11.60;;;7.18;;
40367;SDS011;26075;43.320;21.920;2022-07-06T06:55:48;8.40;;;6.47;;
40367;SDS011;26075;43.320;21.920;2022-07-06T07:00:49;10.32;;;6.72;;
40367;SDS011;26075;43.320;21.920;2022-07-06T07:05:50;11.27;;;6.97;;
40367;SDS011;26075;43.320;21.920;2022-07-06T07:10:51;10.85;;;6.60;;
40367;SDS011;26075;43.320;21.920;2022-07-06T07:15:52;11.15;;;7.70;;
40367;SDS011;26075;43.320;21.920;2022-07-06T07:20:54;12.05;;;6.70;;
40367;SDS011;26075;43.320;21.920;2022-07-06T07:26:05;10.50;;;7.07;;
40367;SDS011;26075;43.320;21.920;2022-07-06T07:31:06;10.82;;;6.38;;
40367;SDS011;26075;43.320;21.920;2022-07-06T07:36:07;9.55;;;6.15;;
40367;SDS011;26075;43.320;21.920;2022-07-06T07:41:08;10.90;;;7.80;;
40367;SDS011;26075;43.320;21.920;2022-07-06T07:46:11;9.13;;;7.35;;
40367;SDS011;26075;43.320;21.920;2022-07-06T07:51:12;9.13;;;6.35;;
40367;SDS011;26075;43.320;21.920;2022-07-06T07:56:13;9.23;;;6.45;;
40367;SDS011;26075;43.320;21.920;2022-07-06T08:01:14;8.63;;;5.78;;
40367;SDS011;26075;43.320;21.920;2022-07-06T08:06:15;7.70;;;5.75;;
40367;SDS011;26075;43.320;21.920;2022-07-06T08:11:16;11.02;;;6.78;;
40367;SDS011;26075;43.320;21.920;2022-07-06T08:16:17;7.75;;;6.10;;
40367;SDS011;26075;43.320;21.920;2022-07-06T08:21:18;11.25;;;6.78;;
40367;SDS011;26075;43.320;21.920;2022-07-06T08:26:19;11.35;;;6.70;;
40367;SDS011;26075;43.320;21.920;2022-07-06T08:31:21;9.18;;;6.85;;
40367;SDS011;26075;43.320;21.920;2022-07-06T08:36:22;8.60;;;6.10;;
40367;SDS011;26075;43.320;21.920;2022-07-06T08:41:24;9.02;;;6.45;;
40367;SDS011;26075;43.320;21.920;2022-07-06T08:46:25;9.88;;;5.80;;
40367;SDS011;26075;43.320;21.920;2022-07-06T08:51:28;8.55;;;6.03;;
40367;SDS011;26075;43.320;21.920;2022-07-06T08:56:30;7.05;;;5.63;;
40367;SDS011;26075;43.320;21.920;2022-07-06T09:01:31;7.53;;;6.18;;
40367;SDS011;26075;43.320;21.920;2022-07-06T09:06:33;10.35;;;5.82;;
40367;SDS011;26075;43.320;21.920;2022-07-06T09:11:35;8.95;;;5.72;;
40367;SDS011;26075;43.320;21.920;2022-07-06T09:16:38;9.23;;;5.53;;
40367;SDS011;26075;43.320;21.920;2022-07-06T09:21:39;7.78;;;5.25;;
40367;SDS011;26075;43.320;21.920;2022-07-06T09:26:41;8.13;;;5.85;;
40367;SDS011;26075;43.320;21.920;2022-07-06T09:31:55;9.05;;;5.32;;
40367;SDS011;26075;43.320;21.920;2022-07-06T09:36:56;9.45;;;4.90;;
40367;SDS011;26075;43.320;21.920;2022-07-06T09:41:58;8.90;;;4.90;;
40367;SDS011;26075;43.320;21.920;2022-07-06T09:47:02;8.65;;;5.30;;
40367;SDS011;26075;43.320;21.920;2022-07-06T09:52:04;8.13;;;4.60;;
40367;SDS011;26075;43.320;21.920;2022-07-06T09:57:06;7.35;;;4.25;;
40367;SDS011;26075;43.320;21.920;2022-07-06T10:02:07;6.78;;;4.32;;
40367;SDS011;26075;43.320;21.920;2022-07-06T10:07:09;5.40;;;4.00;;
40367;SDS011;26075;43.320;21.920;2022-07-06T10:12:10;6.22;;;4.03;;
40367;SDS011;26075;43.320;21.920;2022-07-06T10:17:13;5.50;;;4.00;;
40367;SDS011;26075;43.320;21.920;2022-07-06T10:22:14;11.27;;;5.82;;
40367;SDS011;26075;43.320;21.920;2022-07-06T10:32:24;5.78;;;4.00;;
40367;SDS011;26075;43.320;21.920;2022-07-06T10:37:26;4.78;;;4.05;;
40367;SDS011;26075;43.320;21.920;2022-07-06T10:47:41;11.32;;;4.43;;
40367;SDS011;26075;43.320;21.920;2022-07-06T10:53:09;5.82;;;4.07;;
40367;SDS011;26075;43.320;21.920;2022-07-06T10:58:05;4.88;;;3.97;;
40367;SDS011;26075;43.320;21.920;2022-07-06T11:13:54;10.43;;;4.47;;
40367;SDS011;26075;43.320;21.920;2022-07-06T11:24:03;5.57;;;3.33;;
40367;SDS011;26075;43.320;21.920;2022-07-06T11:29:05;6.72;;;4.50;;
40367;SDS011;26075;43.320;21.920;2022-07-06T11:34:07;5.20;;;3.67;;
40367;SDS011;26075;43.320;21.920;2022-07-06T11:39:09;6.03;;;3.95;;
40367;SDS011;26075;43.320;21.920;2022-07-06T11:44:10;6.82;;;3.40;;
40367;SDS011;26075;43.320;21.920;2022-07-06T11:49:11;5.60;;;3.72;;
40367;SDS011;26075;43.320;21.920;2022-07-06T11:54:13;6.80;;;4.05;;
40367;SDS011;26075;43.320;21.920;2022-07-06T11:59:15;6.50;;;3.90;;
40367;SDS011;26075;43.320;21.920;2022-07-06T12:04:16;6.20;;;3.97;;
40367;SDS011;26075;43.320;21.920;2022-07-06T12:09:17;6.03;;;3.58;;
40367;SDS011;26075;43.320;21.920;2022-07-06T12:14:20;5.22;;;4.30;;
40367;SDS011;26075;43.320;21.920;2022-07-06T12:19:22;4.70;;;3.45;;
40367;SDS011;26075;43.320;21.920;2022-07-06T12:24:24;4.20;;;3.42;;
40367;SDS011;26075;43.320;21.920;2022-07-06T12:29:25;6.07;;;4.28;;
40367;SDS011;26075;43.320;21.920;2022-07-06T12:34:27;4.93;;;3.25;;
40367;SDS011;26075;43.320;21.920;2022-07-06T12:39:32;8.45;;;4.80;;
40367;SDS011;26075;43.320;21.920;2022-07-06T12:44:44;4.70;;;3.38;;
40367;SDS011;26075;43.320;21.920;2022-07-06T12:49:46;8.25;;;3.08;;
40367;SDS011;26075;43.320;21.920;2022-07-06T12:54:48;4.70;;;3.00;;
40367;SDS011;26075;43.320;21.920;2022-07-06T13:05:00;4.88;;;3.80;;
40367;SDS011;26075;43.320;21.920;2022-07-06T13:10:08;6.15;;;3.00;;
40367;SDS011;26075;43.320;21.920;2022-07-06T13:15:11;5.20;;;3.28;;
40367;SDS011;26075;43.320;21.920;2022-07-06T13:20:12;4.88;;;2.65;;
40367;SDS011;26075;43.320;21.920;2022-07-06T13:25:13;4.07;;;2.40;;
40367;SDS011;26075;43.320;21.920;2022-07-06T13:30:14;3.20;;;1.90;;
40367;SDS011;26075;43.320;21.920;2022-07-06T13:35:15;6.03;;;2.25;;
40367;SDS011;26075;43.320;21.920;2022-07-06T13:40:19;3.10;;;2.00;;
40367;SDS011;26075;43.320;21.920;2022-07-06T13:45:20;4.30;;;2.28;;
40367;SDS011;26075;43.320;21.920;2022-07-06T13:50:23;4.20;;;2.13;;
40367;SDS011;26075;43.320;21.920;2022-07-06T13:55:25;3.70;;;2.23;;
40367;SDS011;26075;43.320;21.920;2022-07-06T14:00:26;5.00;;;1.85;;
40367;SDS011;26075;43.320;21.920;2022-07-06T14:05:35;5.70;;;2.10;;
40367;SDS011;26075;43.320;21.920;2022-07-06T14:10:36;3.45;;;1.90;;
40367;SDS011;26075;43.320;21.920;2022-07-06T14:15:37;7.57;;;2.00;;
40367;SDS011;26075;43.320;21.920;2022-07-06T14:20:38;4.97;;;2.20;;
40367;SDS011;26075;43.320;21.920;2022-07-06T14:25:39;3.28;;;2.00;;
40367;SDS011;26075;43.320;21.920;2022-07-06T14:30:41;5.25;;;1.75;;
40367;SDS011;26075;43.320;21.920;2022-07-06T14:35:44;4.72;;;2.30;;
40367;SDS011;26075;43.320;21.920;2022-07-06T14:40:47;5.43;;;1.80;;
40367;SDS011;26075;43.320;21.920;2022-07-06T14:45:49;4.97;;;1.90;;
40367;SDS011;26075;43.320;21.920;2022-07-06T14:50:50;4.05;;;1.70;;
40367;SDS011;26075;43.320;21.920;2022-07-06T14:55:52;3.63;;;2.03;;
40367;SDS011;26075;43.320;21.920;2022-07-06T15:00:53;3.63;;;2.22;;
40367;SDS011;26075;43.320;21.920;2022-07-06T15:05:54;4.55;;;2.40;;
40367;SDS011;26075;43.320;21.920;2022-07-06T15:10:55;3.47;;;2.10;;
40367;SDS011;26075;43.320;21.920;2022-07-06T15:15:56;4.55;;;2.63;;
40367;SDS011;26075;43.320;21.920;2022-07-06T15:21:05;3.50;;;2.70;;
40367;SDS011;26075;43.320;21.920;2022-07-06T15:26:09;4.28;;;2.90;;
40367;SDS011;26075;43.320;21.920;2022-07-06T15:31:10;6.88;;;3.20;;
40367;SDS011;26075;43.320;21.920;2022-07-06T15:36:11;4.78;;;3.00;;
40367;SDS011;26075;43.320;21.920;2022-07-06T15:41:12;4.78;;;3.00;;
40367;SDS011;26075;43.320;21.920;2022-07-06T15:46:13;4.00;;;2.92;;
40367;SDS011;26075;43.320;21.920;2022-07-06T15:51:15;6.65;;;3.05;;
40367;SDS011;26075;43.320;21.920;2022-07-06T15:56:16;5.72;;;3.70;;
40367;SDS011;26075;43.320;21.920;2022-07-06T16:01:17;5.70;;;3.38;;
40367;SDS011;26075;43.320;21.920;2022-07-06T16:06:18;7.47;;;3.78;;
40367;SDS011;26075;43.320;21.920;2022-07-06T16:11:19;5.53;;;2.90;;
40367;SDS011;26075;43.320;21.920;2022-07-06T16:21:40;5.63;;;3.83;;
40367;SDS011;26075;43.320;21.920;2022-07-06T16:26:41;6.28;;;3.33;;
40367;SDS011;26075;43.320;21.920;2022-07-06T16:31:42;5.78;;;3.53;;
40367;SDS011;26075;43.320;21.920;2022-07-06T16:41:55;9.77;;;7.13;;
40367;SDS011;26075;43.320;21.920;2022-07-06T16:46:56;7.25;;;4.60;;
40367;SDS011;26075;43.320;21.920;2022-07-06T16:51:57;6.15;;;4.53;;
40367;SDS011;26075;43.320;21.920;2022-07-06T16:57:03;5.32;;;4.47;;
40367;SDS011;26075;43.320;21.920;2022-07-06T17:02:04;6.22;;;4.57;;
40367;SDS011;26075;43.320;21.920;2022-07-06T17:07:05;5.50;;;4.22;;
40367;SDS011;26075;43.320;21.920;2022-07-06T17:12:06;6.50;;;4.28;;
40367;SDS011;26075;43.320;21.920;2022-07-06T17:17:08;7.10;;;4.50;;
40367;SDS011;26075;43.320;21.920;2022-07-06T17:22:09;6.88;;;4.45;;
40367;SDS011;26075;43.320;21.920;2022-07-06T17:27:10;8.27;;;3.83;;
40367;SDS011;26075;43.320;21.920;2022-07-06T17:32:11;5.07;;;4.50;;
40367;SDS011;26075;43.320;21.920;2022-07-06T17:37:13;6.88;;;4.28;;
40367;SDS011;26075;43.320;21.920;2022-07-06T17:42:14;4.70;;;3.85;;
40367;SDS011;26075;43.320;21.920;2022-07-06T17:47:16;5.18;;;3.90;;
40367;SDS011;26075;43.320;21.920;2022-07-06T17:52:17;4.35;;;3.95;;
40367;SDS011;26075;43.320;21.920;2022-07-06T17:57:18;6.25;;;4.10;;
40367;SDS011;26075;43.320;21.920;2022-07-06T18:02:19;5.90;;;3.92;;
40367;SDS011;26075;43.320;21.920;2022-07-06T18:07:21;5.72;;;4.13;;
40367;SDS011;26075;43.320;21.920;2022-07-06T18:12:22;4.00;;;3.50;;
40367;SDS011;26075;43.320;21.920;2022-07-06T18:17:23;4.70;;;3.85;;
40367;SDS011;26075;43.320;21.920;2022-07-06T18:22:24;6.03;;;3.88;;
40367;SDS011;26075;43.320;21.920;2022-07-06T18:27:25;4.78;;;3.38;;
40367;SDS011;26075;43.320;21.920;2022-07-06T18:32:26;5.35;;;4.30;;
40367;SDS011;26075;43.320;21.920;2022-07-06T18:37:27;5.55;;;4.72;;
40367;SDS011;26075;43.320;21.920;2022-07-06T18:42:29;6.13;;;4.90;;
40367;SDS011;26075;43.320;21.920;2022-07-06T18:47:29;4.20;;;3.80;;
40367;SDS011;26075;43.320;21.920;2022-07-06T18:52:31;7.10;;;3.83;;
40367;SDS011;26075;43.320;21.920;2022-07-06T18:57:35;5.68;;;4.00;;
40367;SDS011;26075;43.320;21.920;2022-07-06T19:02:36;5.88;;;4.40;;
40367;SDS011;26075;43.320;21.920;2022-07-06T19:07:38;6.40;;;3.80;;
40367;SDS011;26075;43.320;21.920;2022-07-06T19:12:39;5.07;;;4.30;;
40367;SDS011;26075;43.320;21.920;2022-07-06T19:17:40;6.68;;;4.80;;
40367;SDS011;26075;43.320;21.920;2022-07-06T19:22:41;6.93;;;4.45;;
40367;SDS011;26075;43.320;21.920;2022-07-06T19:27:43;6.45;;;4.57;;
40367;SDS011;26075;43.320;21.920;2022-07-06T19:32:44;7.95;;;4.65;;
40367;SDS011;26075;43.320;21.920;2022-07-06T19:37:51;6.18;;;4.45;;
40367;SDS011;26075;43.320;21.920;2022-07-06T19:42:52;7.70;;;4.65;;
40367;SDS011;26075;43.320;21.920;2022-07-06T19:48:05;6.40;;;4.90;;
40367;SDS011;26075;43.320;21.920;2022-07-06T19:53:08;10.90;;;5.05;;
40367;SDS011;26075;43.320;21.920;2022-07-06T19:58:10;7.80;;;4.78;;
40367;SDS011;26075;43.320;21.920;2022-07-06T20:03:11;6.53;;;4.85;;
40367;SDS011;26075;43.320;21.920;2022-07-06T20:08:12;7.03;;;4.78;;
40367;SDS011;26075;43.320;21.920;2022-07-06T20:13:13;6.93;;;5.18;;
40367;SDS011;26075;43.320;21.920;2022-07-06T20:18:15;6.63;;;5.00;;
40367;SDS011;26075;43.320;21.920;2022-07-06T20:23:17;6.35;;;5.10;;
40367;SDS011;26075;43.320;21.920;2022-07-06T20:33:39;15.27;;;5.57;;
40367;SDS011;26075;43.320;21.920;2022-07-06T20:38:40;12.45;;;5.25;;
40367;SDS011;26075;43.320;21.920;2022-07-06T20:54:58;7.88;;;4.57;;
40367;SDS011;26075;43.320;21.920;2022-07-06T20:59:59;9.30;;;4.70;;
40367;SDS011;26075;43.320;21.920;2022-07-06T21:05:00;9.18;;;4.60;;
40367;SDS011;26075;43.320;21.920;2022-07-06T21:10:01;8.63;;;4.60;;
40367;SDS011;26075;43.320;21.920;2022-07-06T21:15:03;11.70;;;4.38;;
40367;SDS011;26075;43.320;21.920;2022-07-06T21:20:04;10.07;;;4.38;;
40367;SDS011;26075;43.320;21.920;2022-07-06T21:31:02;11.07;;;4.60;;
40367;SDS011;26075;43.320;21.920;2022-07-06T21:36:04;11.40;;;3.72;;
40367;SDS011;26075;43.320;21.920;2022-07-06T21:41:05;11.90;;;4.45;;
40367;SDS011;26075;43.320;21.920;2022-07-06T21:46:06;8.13;;;4.40;;
40367;SDS011;26075;43.320;21.920;2022-07-06T21:56:56;9.20;;;4.13;;
40367;SDS011;26075;43.320;21.920;2022-07-06T22:07:21;7.30;;;3.65;;
40367;SDS011;26075;43.320;21.920;2022-07-06T22:12:22;5.13;;;3.95;;
40367;SDS011;26075;43.320;21.920;2022-07-06T22:22:46;6.80;;;3.90;;
40367;SDS011;26075;43.320;21.920;2022-07-06T22:33:25;6.60;;;4.05;;
40367;SDS011;26075;43.320;21.920;2022-07-06T22:38:26;5.10;;;3.88;;
40367;SDS011;26075;43.320;21.920;2022-07-06T22:53:50;6.80;;;4.93;;
40367;SDS011;26075;43.320;21.920;2022-07-06T22:58:51;6.97;;;3.95;;
40367;SDS011;26075;43.320;21.920;2022-07-06T23:03:52;9.45;;;4.55;;
40367;SDS011;26075;43.320;21.920;2022-07-06T23:08:53;7.07;;;4.00;;
40367;SDS011;26075;43.320;21.920;2022-07-06T23:13:55;6.50;;;4.93;;
40367;SDS011;26075;43.320;21.920;2022-07-06T23:24:14;4.90;;;4.25;;
40367;SDS011;26075;43.320;21.920;2022-07-06T23:29:15;5.47;;;4.65;;
40367;SDS011;26075;43.320;21.920;2022-07-06T23:34:16;7.45;;;4.15;;
40367;SDS011;26075;43.320;21.920;2022-07-06T23:39:17;5.78;;;4.32;;
40367;SDS011;26075;43.320;21.920;2022-07-06T23:44:18;6.45;;;4.55;;
40367;SDS011;26075;43.320;21.920;2022-07-06T23:49:19;6.68;;;4.30;;
